MUC | München Airways

 METAR UND TAF INFORMATION

METAR FOR ENSB
ADDS - METARS form results

(0854 UTC 22 March 2019)
Data provider http://aviationweather.gov/metar/data/
 
METAR text: ENSB 220850Z 24009KT 2000 -SN VV008 M03/M05 Q0979 TEMPO 6000 -SN VV016 RMK WIND 1400FT 26008KT
Conditions at: ENSB (SVALBARD/LONGYEA, NO) observed 0850 UTC 22 March 2019
Temperature: -3.0°C (27°F)
Dewpoint: -5.0°C (23°F) [RH = 86%]
Pressure (altimeter): 28.91 inches Hg (979.0 mb)
Winds: from the WSW (240 degrees) at 10 MPH (9 knots; 4.6 m/s)
Visibility: 1.24 miles (2.00 km)
Ceiling: indefinite ceiling with vertical visibility of 800 feet AGL
Clouds: obscured sky
Weather: -SN  (light snow)

METAR text: ENSB 220820Z 24009KT 7000 -SHSN SCT010 BKN020 M02/M06 Q0978 TEMPO 2000 SHSN VV008 RMK WIND 1400FT 27006KT
Conditions at: ENSB (SVALBARD/LONGYEA, NO) observed 0820 UTC 22 March 2019
Temperature: -2.0°C (28°F)
Dewpoint: -6.0°C (21°F) [RH = 74%]
Pressure (altimeter): 28.88 inches Hg (978.0 mb)
Winds: from the WSW (240 degrees) at 10 MPH (9 knots; 4.6 m/s)
Visibility: 4 miles ( 7 km)
Ceiling: 2000 feet AGL
Clouds: scattered clouds at 1000 feet AGL
broken clouds at 2000 feet AGL
Weather: -SHSN  (light snow showers)

Forecast for: ENSB (SVALBARD/LONGYEA, NO)
Text: ENSB 2206/2306 12009KT 9999 FEW040 BKN060
Forecast period: 0600 UTC 22 March 2019 to 0600 UTC 23 March 2019
Forecast type: FROM: standard forecast or significant change
Winds: from the ESE (120 degrees) at 10 MPH (9 knots; 4.6 m/s)
Visibility: 6 or more miles 10+ km)
Ceiling: 6000 feet AGL
Clouds: few clouds at 4000 feet AGL
broken clouds at 6000 feet AGL
Weather: no significant weather forecast for this period
Text: TEMPO 2206/2210 12020KT
Forecast period: 0600 to 1000 UTC 22 March 2019
Forecast type: TEMPORARY: The following changes expected for less than half the time period
Winds: from the ESE (120 degrees) at 23 MPH (20 knots; 10.3 m/s)
Visibility: missing
Ceiling: unknown
Clouds: missing
Weather: no significant weather forecast for this period
Text: TEMPO 2210/2213 2000 SHSN VV009
Forecast period: 1000 to 1300 UTC 22 March 2019
Forecast type: TEMPORARY: The following changes expected for less than half the time period
Visibility: 1.24 miles (2.00 km)
Ceiling: indefinite ceiling with vertical visibility of 900 feet AGL
Clouds: obscured sky
Weather: SHSN  (snow showers)

 FLUGHAFENKARTE

 RUNWAY INFORMATION
Runway 10 Runway length 7608 ft Runway width 148 ft
Runway elevation 63 ft Runway displaced threshold 199 ft Runway heading 105
Runway 28 Runway length 7608 ft Runway width 148 ft
Runway elevation 73 ft Runway displaced threshold 395 ft Runway heading 285

 AIRPORT FREQUENCIES
Type AFIS Name INFO Frequency 118.1 MHZ
Type AFIS Name INFO Frequency 884 MHZ

 AIRPORT NEAR NAVIGATION AIDS